Time;durP1;ratioP1;P1;durP2;ratioP2;P2;SDS_P1;SDS_P2;PMS_P1;PMS_P2;Temp;Humidity;BMP_temperature;BMP_pressure;BME280_temperature;BME280_humidity;BME280_pressure;Samples;Min_cycle;Max_cycle;Signal;HPM_P1;HPM_P2
2022/04/19 00:00:48;;;;;;;7.90;5.77;;;;;;;2.20;100.00;96122.34;5030198;28;20543;-74
2022/04/19 00:03:15;;;;;;;6.60;5.07;;;;;;;2.32;100.00;96111.53;5031584;28;20511;-74
2022/04/19 00:05:43;;;;;;;6.23;4.90;;;;;;;2.35;100.00;96140.44;5033530;28;20466;-74
2022/04/19 00:08:11;;;;;;;5.63;5.07;;;;;;;2.10;100.00;96119.06;5039250;28;20825;-74
2022/04/19 00:10:39;;;;;;;4.90;4.47;;;;;;;1.95;100.00;96084.28;5045169;28;20947;-74
2022/04/19 00:13:06;;;;;;;5.10;4.40;;;;;;;2.13;100.00;96098.41;5042934;28;20979;-74
2022/04/19 00:15:34;;;;;;;4.83;3.83;;;;;;;2.04;100.00;96128.78;5020148;28;21010;-75
2022/04/19 00:18:03;;;;;;;4.57;3.90;;;;;;;1.92;100.00;96128.38;5038178;28;20458;-74
2022/04/19 00:20:32;;;;;;;5.30;3.67;;;;;;;1.94;100.00;96128.88;5019084;28;20517;-74
2022/04/19 00:23:00;;;;;;;4.00;3.00;;;;;;;2.09;100.00;96131.31;5037684;28;20432;-74
2022/04/19 00:25:26;;;;;;;4.47;4.07;;;;;;;2.24;100.00;96130.38;5043221;28;20799;-74
2022/04/19 00:27:53;;;;;;;4.10;3.77;;;;;;;2.20;100.00;96124.19;5030300;28;20557;-74
2022/04/19 00:30:20;;;;;;;7.50;4.30;;;;;;;2.27;100.00;96124.59;5030412;28;20510;-74
2022/04/19 00:32:47;;;;;;;11.40;8.27;;;;;;;1.97;100.00;96097.81;5029979;28;21345;-74
2022/04/19 00:35:13;;;;;;;10.87;7.67;;;;;;;1.41;100.00;96055.88;5030081;28;20534;-74
2022/04/19 00:37:40;;;;;;;9.83;6.90;;;;;;;1.97;100.00;96112.66;5030080;28;20515;-74
2022/04/19 00:40:08;;;;;;;11.37;5.60;;;;;;;2.04;100.00;96115.75;5029378;28;20949;-74
2022/04/19 00:42:36;;;;;;;8.47;6.70;;;;;;;1.63;100.00;96042.41;5029773;28;20430;-74
2022/04/19 00:45:05;;;;;;;7.57;5.90;;;;;;;1.92;100.00;96063.97;5033069;28;20534;-74
2022/04/19 00:47:33;;;;;;;6.33;5.80;;;;;;;1.77;100.00;96028.44;5042718;28;20654;-74
2022/04/19 00:50:05;;;;;;;8.13;6.37;;;;;;;2.17;100.00;96102.03;5037697;28;20557;-74
2022/04/19 00:52:37;;;;;;;6.60;5.37;;;;;;;1.87;100.00;96065.84;5035957;28;20438;-74
2022/04/19 00:55:09;;;;;;;6.90;5.30;;;;;;;1.87;100.00;96068.44;5039886;28;20823;-75
2022/04/19 00:57:41;;;;;;;7.90;5.40;;;;;;;1.75;100.00;96045.41;5031090;28;20562;-74
2022/04/19 01:00:12;;;;;;;6.73;5.97;;;;;;;1.88;100.00;96083.84;5022066;28;20452;-75
2022/04/19 01:02:51;;;;;;;8.10;6.00;;;;;;;1.73;100.00;96079.53;5024219;28;20815;-74
2022/04/19 01:05:22;;;;;;;6.47;5.87;;;;;;;1.37;100.00;96040.03;5042728;28;20438;-74
2022/04/19 01:07:50;;;;;;;6.30;5.70;;;;;;;2.06;100.00;96079.75;5032027;28;20440;-74
2022/04/19 01:10:21;;;;;;;5.70;5.13;;;;;;;1.83;100.00;96023.16;5055086;28;20498;-74
2022/04/19 01:15:35;;;;;;;5.73;4.80;;;;;;;2.05;100.00;96036.47;5055457;28;20997;-74
2022/04/19 01:18:09;;;;;;;3.87;3.47;;;;;;;2.11;100.00;96066.63;5039927;28;20946;-75
2022/04/19 01:20:38;;;;;;;4.47;4.07;;;;;;;1.71;100.00;96057.41;5033772;28;20471;-74
2022/04/19 01:23:08;;;;;;;4.67;4.10;;;;;;;1.71;100.00;96052.97;5029434;28;20455;-75
2022/04/19 01:25:35;;;;;;;3.80;3.37;;;;;;;1.96;100.00;96064.97;5033256;28;20449;-75
2022/04/19 01:28:03;;;;;;;4.33;3.30;;;;;;;1.93;100.00;96036.88;5046121;28;20522;-74
2022/04/19 01:30:31;;;;;;;4.23;3.07;;;;;;;1.67;100.00;95992.06;5023670;28;20466;-74
2022/04/19 01:32:59;;;;;;;4.97;3.40;;;;;;;1.96;100.00;96072.03;5053800;28;20427;-74
2022/04/19 01:35:26;;;;;;;6.07;3.03;;;;;;;1.37;100.00;96028.84;5044246;28;20435;-74
2022/04/19 01:37:56;;;;;;;3.53;3.20;;;;;;;1.51;100.00;96027.13;5029818;28;20442;-74
2022/04/19 01:40:28;;;;;;;4.77;3.60;;;;;;;1.36;100.00;96042.91;5042308;28;20443;-74
2022/04/19 01:42:58;;;;;;;3.30;3.10;;;;;;;1.52;100.00;96053.97;5039059;28;20443;-74
2022/04/19 01:45:32;;;;;;;4.07;3.13;;;;;;;1.26;100.00;96032.56;5041568;28;20471;-75
2022/04/19 01:48:03;;;;;;;3.60;3.30;;;;;;;1.13;100.00;96023.56;5045717;28;20871;-75
2022/04/19 01:50:32;;;;;;;4.23;3.20;;;;;;;1.32;100.00;96021.06;5032636;28;20467;-74
2022/04/19 01:53:00;;;;;;;3.80;3.50;;;;;;;1.46;100.00;96020.13;5051672;28;20446;-74
2022/04/19 01:55:28;;;;;;;4.47;3.43;;;;;;;1.30;100.00;96010.13;5036292;28;20441;-74
2022/04/19 01:58:00;;;;;;;4.77;3.60;;;;;;;1.34;100.00;96022.34;5052462;28;20493;-74
2022/04/19 02:00:35;;;;;;;4.57;4.10;;;;;;;1.27;100.00;96016.69;5052276;28;20476;-74
2022/04/19 02:03:03;;;;;;;4.70;4.30;;;;;;;1.35;100.00;96046.56;5036017;28;20439;-73
2022/04/19 02:05:30;;;;;;;5.67;4.77;;;;;;;1.28;100.00;96023.44;5035527;28;20518;-74
2022/04/19 02:08:01;;;;;;;6.60;5.70;;;;;;;1.16;100.00;96015.19;5017713;28;20433;-74
2022/04/19 02:10:29;;;;;;;5.50;4.50;;;;;;;1.22;100.00;96002.94;5012563;28;20911;-74
2022/04/19 02:12:57;;;;;;;4.83;4.43;;;;;;;0.89;100.00;95979.25;5015936;28;20497;-74
2022/04/19 02:15:46;;;;;;;5.90;5.17;;;;;;;1.23;100.00;96033.13;5036662;28;21123;-74
2022/04/19 02:18:17;;;;;;;4.83;4.13;;;;;;;1.17;100.00;96033.16;5035142;28;20527;-74
2022/04/19 02:20:45;;;;;;;6.73;3.97;;;;;;;1.03;100.00;95997.63;5039142;28;20485;-74
2022/04/19 02:23:15;;;;;;;4.80;3.80;;;;;;;1.32;100.00;96031.47;5038222;28;20444;-74
2022/04/19 02:25:43;;;;;;;5.30;4.63;;;;;;;1.29;100.00;96030.19;5051847;28;20486;-75
2022/04/19 02:28:12;;;;;;;5.10;4.17;;;;;;;1.15;100.00;96030.06;5049493;28;20911;-74
2022/04/19 02:30:48;;;;;;;4.63;4.23;;;;;;;0.94;100.00;96033.88;5026999;28;20443;-75
2022/04/19 02:33:21;;;;;;;4.23;3.80;;;;;;;0.77;100.00;95995.22;5027286;28;20452;-75
2022/04/19 02:35:48;;;;;;;4.90;4.40;;;;;;;0.85;100.00;96005.03;5031478;28;20444;-75
2022/04/19 02:38:15;;;;;;;6.30;5.70;;;;;;;0.57;100.00;96000.56;5020112;28;20493;-75
2022/04/19 02:40:46;;;;;;;4.40;4.00;;;;;;;0.72;100.00;96015.28;5052037;28;20439;-75
2022/04/19 02:43:13;;;;;;;4.13;3.40;;;;;;;0.63;100.00;95980.50;5038362;28;20443;-75
2022/04/19 02:45:42;;;;;;;4.17;3.80;;;;;;;0.59;100.00;95988.84;5023413;28;20506;-75
2022/04/19 02:48:11;;;;;;;4.00;3.70;;;;;;;0.74;100.00;96000.19;5025888;28;20458;-74
2022/04/19 02:50:44;;;;;;;5.30;3.30;;;;;;;0.67;100.00;95978.88;5038376;28;20469;-74
2022/04/19 02:53:12;;;;;;;3.60;3.23;;;;;;;0.93;100.00;95992.50;5043827;28;20534;-74
2022/04/19 02:55:40;;;;;;;3.67;3.33;;;;;;;1.14;100.00;96001.69;5044548;28;20523;-74
2022/04/19 02:58:07;;;;;;;4.33;3.70;;;;;;;0.96;100.00;96021.38;5038791;28;20484;-74
2022/04/19 03:00:37;;;;;;;3.80;3.50;;;;;;;0.70;100.00;96020.00;5019891;28;20513;-74
2022/04/19 03:03:08;;;;;;;5.43;3.73;;;;;;;0.50;100.00;95967.03;5011228;28;20475;-74
2022/04/19 03:05:39;;;;;;;3.23;2.90;;;;;;;0.67;100.00;95994.50;5047243;28;20440;-74
2022/04/19 03:08:07;;;;;;;6.10;4.23;;;;;;;0.38;100.00;95978.81;5024535;28;20934;-74
2022/04/19 03:10:35;;;;;;;4.10;3.70;;;;;;;0.24;100.00;95969.03;5027952;28;20944;-74
2022/04/19 03:13:02;;;;;;;4.27;3.93;;;;;;;0.39;100.00;95955.16;5041713;28;20809;-74
2022/04/19 03:15:34;;;;;;;4.10;3.70;;;;;;;0.77;100.00;96013.41;5021056;28;20939;-74
2022/04/19 03:18:02;;;;;;;3.80;3.50;;;;;;;0.76;100.00;96016.28;5050695;28;20985;-75
2022/04/19 03:20:32;;;;;;;4.50;4.10;;;;;;;0.64;100.00;95988.00;5031912;28;20459;-74
2022/04/19 03:28:40;;;;;;;4.27;3.97;;;;;;;0.68;100.00;95955.22;5030534;28;20464;-74
2022/04/19 03:31:07;;;;;;;3.80;3.17;;;;;;;0.64;100.00;95969.03;5030237;28;20440;-74
2022/04/19 03:33:38;;;;;;;4.53;4.10;;;;;;;0.52;100.00;95971.97;5030613;28;20445;-74
2022/04/19 03:36:08;;;;;;;5.73;4.40;;;;;;;0.66;100.00;96001.53;5030563;28;20958;-74
2022/04/19 03:38:35;;;;;;;3.40;3.10;;;;;;;0.30;100.00;95980.19;5030710;28;20543;-74
2022/04/19 03:41:05;;;;;;;4.37;3.97;;;;;;;-0.02;100.00;95949.41;5030473;28;20916;-74
2022/04/19 03:43:32;;;;;;;4.50;3.90;;;;;;;0.16;100.00;96000.03;5030252;28;20500;-74
2022/04/19 03:45:59;;;;;;;5.63;3.63;;;;;;;0.10;100.00;95965.47;5031719;28;20428;-74
2022/04/19 03:48:28;;;;;;;3.53;3.17;;;;;;;0.38;100.00;95974.41;5030673;28;20479;-74
2022/04/19 03:50:54;;;;;;;4.40;4.00;;;;;;;0.65;100.00;95999.19;5030125;28;20491;-74
2022/04/19 03:53:21;;;;;;;3.60;3.30;;;;;;;0.66;100.00;95993.72;5014039;28;20522;-74
2022/04/19 03:55:48;;;;;;;4.43;3.80;;;;;;;0.69;100.00;96003.59;5031901;28;20805;-74
2022/04/19 03:58:14;;;;;;;3.73;3.03;;;;;;;0.29;100.00;95963.81;5045337;28;20443;-74
2022/04/19 04:00:41;;;;;;;4.90;3.70;;;;;;;0.14;100.00;95945.72;5052705;28;20992;-74
2022/04/19 04:03:08;;;;;;;4.70;4.30;;;;;;;0.04;100.00;95944.97;5050919;28;20666;-74
2022/04/19 04:05:35;;;;;;;4.97;4.43;;;;;;;-0.12;100.00;95965.06;5014918;28;20512;-74
2022/04/19 04:08:02;;;;;;;5.53;4.10;;;;;;;-0.06;100.00;95972.56;5014286;28;20441;-74
2022/04/19 04:10:36;;;;;;;5.07;4.57;;;;;;;0.36;100.00;96002.50;5047747;28;20481;-74
2022/04/19 04:13:04;;;;;;;6.40;5.20;;;;;;;0.46;100.00;95978.25;5045578;28;20446;-74
2022/04/19 04:15:33;;;;;;;5.10;4.60;;;;;;;0.43;100.00;95977.00;5055513;28;20450;-75
2022/04/19 04:18:01;;;;;;;5.27;4.77;;;;;;;0.58;100.00;95992.50;5057979;28;20437;-75
2022/04/19 04:20:28;;;;;;;5.70;4.57;;;;;;;0.28;100.00;95995.28;5019554;28;20454;-75
2022/04/19 04:22:55;;;;;;;6.00;3.17;;;;;;;0.08;100.00;95983.16;5042234;28;20483;-75
2022/04/19 04:25:22;;;;;;;4.37;3.97;;;;;;;0.36;100.00;95994.69;5037632;28;20913;-75
2022/04/19 04:27:49;;;;;;;5.90;3.50;;;;;;;0.17;100.00;95985.97;5032809;28;20455;-74
2022/04/19 04:30:16;;;;;;;3.80;3.50;;;;;;;-0.17;100.00;95965.06;5015592;28;20478;-74
2022/04/19 04:32:52;;;;;;;3.93;3.20;;;;;;;0.06;100.00;95963.69;5032339;28;20523;-74
2022/04/19 04:35:19;;;;;;;3.67;3.37;;;;;;;0.14;100.00;95937.13;5030691;28;20467;-74
2022/04/19 04:37:46;;;;;;;4.17;3.80;;;;;;;0.36;100.00;95967.91;5013471;28;20494;-74
2022/04/19 04:40:13;;;;;;;3.77;3.47;;;;;;;0.22;100.00;95946.94;5016565;28;20455;-74
2022/04/19 04:42:50;;;;;;;3.70;3.33;;;;;;;0.45;100.00;95972.28;5015841;28;20439;-74
2022/04/19 04:45:17;;;;;;;5.90;3.87;;;;;;;0.80;100.00;95993.88;5033784;28;20525;-74
2022/04/19 04:50:30;;;;;;;4.70;3.80;;;;;;;0.69;100.00;95956.78;5033797;28;20880;-74
2022/04/19 04:53:01;;;;;;;4.70;4.30;;;;;;;0.99;100.00;95979.19;5047308;28;20985;-74
2022/04/19 04:55:30;;;;;;;4.60;4.10;;;;;;;0.90;100.00;95975.59;5017266;28;20453;-74
2022/04/19 04:58:01;;;;;;;5.10;4.60;;;;;;;0.43;100.00;95921.59;5039374;28;20453;-74
2022/04/19 05:00:29;;;;;;;5.03;4.53;;;;;;;0.52;100.00;95944.16;5030252;28;20524;-74
2022/04/19 05:02:59;;;;;;;5.20;4.70;;;;;;;0.69;100.00;95976.81;5053264;28;20439;-75
2022/04/19 05:05:26;;;;;;;4.87;4.20;;;;;;;0.96;100.00;95990.13;5023008;28;20442;-75
2022/04/19 05:07:56;;;;;;;5.67;4.80;;;;;;;0.87;100.00;95976.16;5034598;28;20435;-75
2022/04/19 05:10:25;;;;;;;6.20;5.60;;;;;;;0.80;100.00;95955.66;5048843;28;20528;-75
2022/04/19 05:12:53;;;;;;;6.93;5.73;;;;;;;1.21;100.00;95983.94;5027619;28;21053;-75
2022/04/19 05:15:24;;;;;;;12.47;8.10;;;;;;;0.93;100.00;95956.06;5036391;28;20542;-75
2022/04/19 05:17:51;;;;;;;10.60;7.50;;;;;;;0.88;100.00;95952.44;5042971;28;20497;-75
2022/04/19 05:20:18;;;;;;;9.17;6.30;;;;;;;1.06;100.00;95947.59;5039254;28;20467;-75
2022/04/19 05:22:45;;;;;;;8.47;6.07;;;;;;;1.13;100.00;95964.47;5025738;28;20441;-75
2022/04/19 05:25:12;;;;;;;6.93;6.10;;;;;;;0.94;100.00;95961.00;5029600;28;20450;-75
2022/04/19 05:27:39;;;;;;;10.77;6.23;;;;;;;0.69;100.00;95943.00;5043749;28;20442;-75
2022/04/19 05:30:06;;;;;;;7.27;5.77;;;;;;;0.32;100.00;95920.91;5038738;28;20473;-75
2022/04/19 05:32:33;;;;;;;9.90;7.43;;;;;;;0.93;100.00;95972.44;5041584;28;20479;-75
2022/04/19 05:35:07;;;;;;;6.40;5.73;;;;;;;1.25;100.00;95971.91;5045681;28;20436;-74
2022/04/19 05:37:37;;;;;;;7.93;5.20;;;;;;;0.98;100.00;95946.41;5033906;28;20432;-73
2022/04/19 05:40:05;;;;;;;15.70;7.07;;;;;;;1.19;100.00;95946.97;5038591;28;20458;-74
2022/04/19 05:42:32;;;;;;;9.40;6.97;;;;;;;1.46;100.00;95973.25;5038683;28;20543;-74
2022/04/19 05:45:00;;;;;;;6.37;5.77;;;;;;;1.31;100.00;95952.56;5015972;28;20481;-74
2022/04/19 05:47:26;;;;;;;7.50;6.60;;;;;;;1.40;100.00;95937.91;5012751;28;20498;-75
2022/04/19 05:49:53;;;;;;;11.27;7.77;;;;;;;1.60;100.00;95969.97;5033388;28;20462;-75
2022/04/19 05:52:20;;;;;;;12.57;7.80;;;;;;;1.66;100.00;95977.47;5045233;28;20469;-75
2022/04/19 05:54:46;;;;;;;8.90;7.10;;;;;;;1.59;100.00;95964.00;5038760;28;20431;-75
2022/04/19 05:57:14;;;;;;;9.83;6.23;;;;;;;1.40;100.00;95955.34;5038704;28;20448;-75
2022/04/19 05:59:41;;;;;;;9.97;8.10;;;;;;;1.63;100.00;95982.47;5043762;28;20467;-75
2022/04/19 06:04:57;;;;;;;8.70;6.83;;;;;;;2.03;100.00;95939.53;5040562;28;20591;-75
2022/04/19 06:07:29;;;;;;;10.67;7.07;;;;;;;2.37;100.00;95960.94;5045375;28;20543;-75
2022/04/19 06:10:01;;;;;;;7.30;6.63;;;;;;;2.68;100.00;95984.00;5031787;28;20483;-75
2022/04/19 06:12:29;;;;;;;6.87;6.17;;;;;;;2.74;100.00;95974.25;5029606;28;20468;-76
2022/04/19 06:14:56;;;;;;;7.23;6.63;;;;;;;2.99;100.00;95958.19;5032541;28;20558;-75
2022/04/19 06:17:30;;;;;;;12.37;7.50;;;;;;;3.49;100.00;95992.34;5039435;28;20860;-75
2022/04/19 06:19:56;;;;;;;7.87;7.10;;;;;;;3.44;100.00;95959.22;5040341;28;20479;-76
2022/04/19 06:22:23;;;;;;;10.30;6.93;;;;;;;3.72;100.00;95991.38;5047524;28;20470;-76
2022/04/19 06:24:55;;;;;;;7.10;6.00;;;;;;;3.82;100.00;95983.34;5046772;28;20472;-76
2022/04/19 06:27:22;;;;;;;8.50;6.93;;;;;;;3.76;100.00;95976.69;5025776;28;20834;-75
2022/04/19 06:29:51;;;;;;;8.57;5.83;;;;;;;4.09;100.00;95976.56;5020218;28;20476;-76
2022/04/19 06:32:19;;;;;;;7.13;6.30;;;;;;;4.27;100.00;95988.72;5042255;28;20443;-76
2022/04/19 06:34:49;;;;;;;6.13;5.50;;;;;;;4.00;100.00;95950.31;5029097;28;20444;-75
2022/04/19 06:37:23;;;;;;;8.03;6.43;;;;;;;4.38;100.00;95986.66;5042140;28;20439;-75
2022/04/19 06:40:01;;;;;;;5.67;5.00;;;;;;;4.47;100.00;95978.91;5032335;28;20468;-75
2022/04/19 06:42:29;;;;;;;6.43;5.60;;;;;;;4.44;100.00;95952.25;5031233;28;20486;-75
2022/04/19 06:45:24;;;;;;;5.77;5.20;;;;;;;4.63;100.00;95970.41;5041608;28;20586;-75
2022/04/19 06:48:02;;;;;;;5.50;5.03;;;;;;;4.66;100.00;95967.19;5047703;28;20457;-76
2022/04/19 06:50:32;;;;;;;5.90;5.37;;;;;;;4.79;100.00;95962.19;5043677;28;20539;-76
2022/04/19 06:53:06;;;;;;;6.77;6.10;;;;;;;4.72;100.00;95925.97;5031530;28;20440;-76
2022/04/19 06:55:55;;;;;;;7.13;6.07;;;;;;;4.85;100.00;95925.13;5031395;28;20462;-76
2022/04/19 06:58:22;;;;;;;6.33;5.17;;;;;;;5.06;100.00;95928.00;5031117;28;21045;-76
2022/04/19 07:00:49;;;;;;;6.53;5.93;;;;;;;5.39;100.00;95925.88;5044542;28;20955;-76
2022/04/19 07:03:15;;;;;;;7.07;5.27;;;;;;;5.46;100.00;95912.31;5031162;28;20471;-76
2022/04/19 07:06:01;;;;;;;11.73;6.03;;;;;;;6.50;100.00;95939.56;5050752;28;20783;-76
2022/04/19 07:08:27;;;;;;;5.60;5.00;;;;;;;6.87;100.00;95913.72;5037491;28;20998;-76
2022/04/19 07:10:55;;;;;;;5.93;5.33;;;;;;;7.24;100.00;95917.50;5050466;28;20460;-76
2022/04/19 07:13:45;;;;;;;7.90;4.67;;;;;;;7.31;100.00;95925.66;5047641;28;20456;-76
2022/04/19 07:16:24;;;;;;;6.77;5.20;;;;;;;6.82;100.00;95920.69;5027006;28;20463;-76
2022/04/19 07:18:50;;;;;;;5.53;4.97;;;;;;;6.75;100.00;95954.53;5015686;28;20462;-76
2022/04/19 07:27:08;;;;;;;6.00;5.40;;;;;;;7.01;100.00;95922.97;5052008;28;20977;-76
2022/04/19 07:29:35;;;;;;;6.63;5.10;;;;;;;7.05;100.00;95887.09;5050292;28;20454;-74
2022/04/19 07:32:22;;;;;;;5.40;4.90;;;;;;;7.34;100.00;95951.31;5030508;28;20468;-74
2022/04/19 07:35:06;;;;;;;9.17;6.00;;;;;;;7.02;100.00;95915.84;5033401;28;20444;-74
2022/04/19 07:37:33;;;;;;;8.73;6.60;;;;;;;7.26;100.00;95917.97;5000724;28;20485;-74
2022/04/19 07:40:00;;;;;;;5.43;4.63;;;;;;;7.41;100.00;95917.44;5041749;28;20457;-74
2022/04/19 07:42:26;;;;;;;7.03;4.60;;;;;;;7.39;100.00;95923.03;5012883;28;20478;-74
2022/04/19 07:44:54;;;;;;;5.23;4.73;;;;;;;7.50;100.00;95933.97;5031751;28;20482;-74
2022/04/19 07:47:21;;;;;;;8.33;5.13;;;;;;;7.35;100.00;95937.13;5016658;28;20476;-74
2022/04/19 07:49:49;;;;;;;5.67;5.17;;;;;;;7.14;100.00;95915.22;5012028;28;20472;-74
2022/04/19 07:52:16;;;;;;;8.60;5.20;;;;;;;7.49;100.00;95935.06;5015946;28;20437;-74
2022/04/19 07:54:43;;;;;;;14.27;12.70;;;;;;;7.74;100.00;95946.53;4999276;28;20447;-74
2022/04/19 07:57:10;;;;;;;7.80;5.90;;;;;;;7.95;100.00;95947.38;5015747;28;21030;-74
2022/04/19 07:59:36;;;;;;;5.43;4.93;;;;;;;7.89;100.00;95934.72;5032331;28;20466;-73
2022/04/19 08:02:04;;;;;;;6.00;5.40;;;;;;;7.92;100.00;95948.00;5015713;28;20513;-73
2022/04/19 08:04:30;;;;;;;6.00;5.10;;;;;;;7.94;100.00;95934.53;5025442;28;21042;-73
2022/04/19 08:07:01;;;;;;;7.43;5.90;;;;;;;8.22;100.00;95921.66;4997582;28;20435;-74
2022/04/19 08:09:28;;;;;;;9.23;5.90;;;;;;;8.27;98.91;95914.31;5029496;28;20468;-74
2022/04/19 08:11:55;;;;;;;7.27;5.77;;;;;;;8.17;96.20;95922.63;5008310;28;20492;-74
2022/04/19 08:14:22;;;;;;;6.40;5.77;;;;;;;8.22;94.90;95950.63;5025741;28;21183;-74
2022/04/19 08:16:49;;;;;;;7.03;5.80;;;;;;;8.22;94.67;95946.13;5043570;28;20467;-74
2022/04/19 08:19:16;;;;;;;5.33;4.27;;;;;;;8.06;94.33;95905.66;5013150;28;20463;-74
2022/04/19 08:21:43;;;;;;;5.30;4.80;;;;;;;8.57;92.29;95936.16;5043268;28;20446;-74
2022/04/19 08:24:10;;;;;;;8.60;5.07;;;;;;;8.67;92.31;95939.47;5030057;28;20432;-74
2022/04/19 08:26:36;;;;;;;5.70;4.87;;;;;;;8.92;90.90;95940.34;5014880;28;20441;-74
2022/04/19 08:29:03;;;;;;;7.20;5.03;;;;;;;9.07;87.98;95898.31;5040556;28;20475;-74
2022/04/19 08:31:30;;;;;;;7.47;5.00;;;;;;;9.32;86.75;95888.56;5032125;28;20491;-74
2022/04/19 08:34:00;;;;;;;7.20;5.20;;;;;;;9.87;82.95;95899.69;5032993;28;20458;-74
2022/04/19 08:36:28;;;;;;;5.27;4.77;;;;;;;10.46;83.93;95931.66;5046424;28;20476;-74
2022/04/19 08:38:54;;;;;;;7.80;6.43;;;;;;;10.21;82.05;95906.34;5029374;28;20516;-74
2022/04/19 08:41:23;;;;;;;5.47;4.50;;;;;;;10.22;80.34;95900.75;5029613;28;20867;-74
2022/04/19 08:43:52;;;;;;;7.00;4.83;;;;;;;10.41;79.53;95931.88;5039914;28;20486;-74
2022/04/19 08:46:19;;;;;;;6.80;4.83;;;;;;;10.62;79.27;95915.84;5045406;28;20536;-74
2022/04/19 08:48:47;;;;;;;4.73;4.20;;;;;;;10.49;79.88;95893.97;5040011;28;20463;-74
2022/04/19 08:51:18;;;;;;;5.47;4.33;;;;;;;10.39;78.27;95889.16;5045317;28;20464;-74
2022/04/19 08:59:15;;;;;;;7.27;5.77;;;;;;;10.55;77.87;95905.06;5037059;28;20447;-74
2022/04/19 09:01:42;;;;;;;6.13;5.57;;;;;;;10.43;78.27;95892.69;5023179;28;20451;-74
2022/04/19 09:04:09;;;;;;;5.03;4.03;;;;;;;10.20;78.83;95891.59;5029278;28;20428;-74
2022/04/19 09:06:57;;;;;;;6.40;4.93;;;;;;;10.62;78.55;95921.13;5029295;28;20464;-74
2022/04/19 09:09:26;;;;;;;5.10;4.30;;;;;;;10.67;78.90;95912.94;5016947;28;20501;-74
2022/04/19 09:11:55;;;;;;;6.10;5.20;;;;;;;10.72;79.99;95881.00;5029031;28;21064;-74
2022/04/19 09:14:23;;;;;;;5.63;4.70;;;;;;;10.93;77.11;95891.34;5029142;28;20441;-74
2022/04/19 09:17:02;;;;;;;4.43;4.03;;;;;;;11.21;75.76;95901.88;5043876;28;20443;-74
2022/04/19 09:19:29;;;;;;;5.20;4.37;;;;;;;11.22;72.96;95914.03;5049970;28;20487;-74
2022/04/19 09:21:56;;;;;;;5.97;5.07;;;;;;;11.41;72.44;95908.06;5063010;28;20524;-74
2022/04/19 09:24:23;;;;;;;4.77;3.93;;;;;;;11.24;72.30;95923.16;5039045;28;20957;-74
2022/04/19 09:26:50;;;;;;;4.70;3.93;;;;;;;11.34;72.62;95911.28;5029250;28;20444;-74
2022/04/19 09:29:21;;;;;;;5.13;4.40;;;;;;;11.55;71.47;95908.41;5029239;28;20471;-74
2022/04/19 09:31:51;;;;;;;4.00;3.70;;;;;;;11.71;71.53;95911.81;5037572;28;20525;-75
2022/04/19 09:34:33;;;;;;;4.53;4.10;;;;;;;11.57;69.82;95911.47;5052686;28;20435;-75
2022/04/19 09:37:08;;;;;;;4.40;3.23;;;;;;;11.26;68.79;95891.06;5035855;28;20444;-75
2022/04/19 09:39:36;;;;;;;3.37;3.10;;;;;;;11.41;68.49;95873.66;5036858;28;20551;-75
2022/04/19 09:42:09;;;;;;;4.00;3.10;;;;;;;11.49;68.43;95896.53;5016392;28;20813;-75
2022/04/19 09:44:37;;;;;;;6.10;3.90;;;;;;;11.65;67.63;95881.41;5046041;28;20464;-75
2022/04/19 09:47:06;;;;;;;3.80;3.50;;;;;;;11.37;68.16;95891.34;5026012;28;20471;-76
2022/04/19 09:49:47;;;;;;;3.40;3.10;;;;;;;11.50;66.83;95892.78;5048444;28;20865;-75
2022/04/19 09:52:43;;;;;;;5.13;3.40;;;;;;;11.20;67.33;95882.59;5032396;28;20456;-76
2022/04/19 09:55:16;;;;;;;3.43;3.13;;;;;;;11.58;66.84;95864.59;5032269;28;20436;-75
2022/04/19 09:57:46;;;;;;;4.67;3.40;;;;;;;11.93;65.89;95872.59;5045683;28;20532;-75
2022/04/19 10:00:15;;;;;;;3.17;2.80;;;;;;;11.96;64.99;95887.78;5032159;28;20544;-75
2022/04/19 10:08:19;;;;;;;2.70;2.50;;;;;;;12.16;62.79;95896.56;5033615;28;20465;-76
2022/04/19 10:10:48;;;;;;;4.93;2.87;;;;;;;11.88;61.71;95892.16;5032059;28;20837;-75
2022/04/19 10:13:20;;;;;;;5.97;2.87;;;;;;;11.34;62.79;95910.53;5043912;28;20443;-75
2022/04/19 10:15:46;;;;;;;2.57;2.40;;;;;;;10.97;63.29;95886.94;5038324;28;20488;-75
2022/04/19 10:18:13;;;;;;;4.13;2.60;;;;;;;10.99;63.29;95897.94;5038889;28;20435;-75
2022/04/19 10:20:46;;;;;;;2.40;2.20;;;;;;;11.63;63.80;95904.06;5033228;28;20440;-75
2022/04/19 10:23:13;;;;;;;3.93;2.60;;;;;;;11.20;62.91;95858.78;5046421;28;20532;-75
2022/04/19 10:25:46;;;;;;;2.33;2.10;;;;;;;11.24;62.27;95906.53;5051834;28;20465;-75
2022/04/19 10:28:26;;;;;;;3.10;2.40;;;;;;;11.65;61.73;95888.59;5049470;28;20535;-75
2022/04/19 10:30:54;;;;;;;3.10;2.80;;;;;;;11.94;61.61;95893.44;5031927;28;20577;-75
2022/04/19 10:33:39;;;;;;;3.70;2.00;;;;;;;12.09;60.34;95897.16;5019652;28;20474;-75
2022/04/19 10:36:20;;;;;;;3.33;1.93;;;;;;;12.57;60.61;95893.25;5021889;28;20437;-75
2022/04/19 10:39:15;;;;;;;2.17;1.97;;;;;;;11.91;59.10;95903.97;5052795;28;20604;-76
2022/04/19 10:41:53;;;;;;;3.00;1.73;;;;;;;11.51;58.09;95900.38;5051065;28;20444;-75
2022/04/19 10:44:22;;;;;;;2.80;2.60;;;;;;;12.12;59.08;95864.66;5020955;28;20436;-75
2022/04/19 10:47:01;;;;;;;4.10;2.63;;;;;;;12.77;59.17;95888.69;5031582;28;20433;-75
2022/04/19 10:49:28;;;;;;;2.80;2.10;;;;;;;12.77;58.97;95874.66;5017677;28;20501;-76
2022/04/19 10:52:01;;;;;;;1.93;1.80;;;;;;;12.34;59.85;95855.28;5031090;28;20533;-75
2022/04/19 10:55:07;;;;;;;1.60;1.50;;;;;;;12.57;58.28;95903.84;5031517;28;20444;-75
2022/04/19 11:00:41;;;;;;;5.53;2.30;;;;;;;12.42;56.02;95888.78;5051457;28;20550;-76
2022/04/19 11:03:34;;;;;;;2.60;2.27;;;;;;;12.21;55.29;95896.28;5031184;28;20438;-75
2022/04/19 11:06:04;;;;;;;2.30;1.57;;;;;;;12.49;54.52;95858.97;5014689;28;20941;-76
2022/04/19 11:08:37;;;;;;;2.27;2.07;;;;;;;12.62;53.31;95892.97;5017489;28;20467;-75
2022/04/19 11:11:08;;;;;;;6.07;2.20;;;;;;;13.07;52.60;95883.53;5014535;28;20460;-76
2022/04/19 11:13:39;;;;;;;2.13;1.93;;;;;;;13.36;51.29;95876.13;5032424;28;20464;-75
2022/04/19 11:16:13;;;;;;;2.07;1.87;;;;;;;13.52;50.28;95882.81;5023499;28;20494;-75
2022/04/19 11:18:40;;;;;;;3.47;1.87;;;;;;;13.39;49.49;95888.66;5033196;28;20543;-76
2022/04/19 11:21:53;;;;;;;2.60;1.97;;;;;;;13.19;48.92;95885.28;5043572;28;20515;-75
2022/04/19 11:24:58;;;;;;;1.87;1.70;;;;;;;13.23;48.40;95894.88;5050383;28;20436;-75
2022/04/19 11:27:53;;;;;;;2.60;2.40;;;;;;;13.22;47.45;95893.34;5050699;28;20495;-75
2022/04/19 11:30:22;;;;;;;1.73;1.63;;;;;;;13.19;47.57;95887.94;5043654;28;20457;-75
2022/04/19 11:32:51;;;;;;;2.27;2.10;;;;;;;13.12;46.76;95883.25;5017111;28;20463;-75
2022/04/19 11:35:18;;;;;;;1.87;1.57;;;;;;;13.07;45.82;95862.31;5017300;28;20548;-75
2022/04/19 11:37:45;;;;;;;1.50;1.33;;;;;;;13.44;45.79;95894.44;5030491;28;20544;-74
2022/04/19 11:48:50;;;;;;;3.40;2.03;;;;;;;12.35;42.99;95883.31;5029967;28;20500;-75
2022/04/19 11:51:20;;;;;;;2.87;1.53;;;;;;;13.33;43.94;95890.84;5029927;28;20480;-75
2022/04/19 11:53:49;;;;;;;1.67;1.47;;;;;;;13.70;42.85;95891.06;5029845;28;20504;-75
2022/04/19 11:56:16;;;;;;;2.40;1.27;;;;;;;13.75;42.00;95890.75;5013890;28;20790;-75
2022/04/19 11:58:49;;;;;;;1.50;1.40;;;;;;;13.56;42.87;95867.69;5030701;28;20469;-75
2022/04/19 12:01:15;;;;;;;3.40;1.87;;;;;;;13.34;42.82;95863.16;5022354;28;20422;-75
2022/04/19 12:03:42;;;;;;;1.93;1.70;;;;;;;13.30;42.04;95878.28;5014117;28;20882;-75
2022/04/19 12:06:15;;;;;;;2.60;2.13;;;;;;;13.06;44.47;95879.34;5021376;28;20490;-75
2022/04/19 12:08:49;;;;;;;1.70;1.40;;;;;;;12.90;42.43;95894.63;5022459;28;20467;-75
2022/04/19 12:11:29;;;;;;;2.33;2.13;;;;;;;12.66;41.87;95899.09;5014512;28;20536;-75
2022/04/19 12:13:57;;;;;;;1.57;1.47;;;;;;;12.85;41.80;95876.34;5003172;28;20457;-75
2022/04/19 12:16:31;;;;;;;1.73;1.63;;;;;;;12.97;42.59;95892.09;5059102;28;20448;-76
2022/04/19 12:19:00;;;;;;;2.50;2.30;;;;;;;12.86;43.81;95896.44;5038880;28;20873;-76
2022/04/19 12:21:46;;;;;;;2.03;1.80;;;;;;;12.84;44.68;95901.34;5038918;28;20536;-76
2022/04/19 12:24:23;;;;;;;2.73;2.43;;;;;;;12.68;44.72;95888.91;5020274;28;20457;-76
2022/04/19 12:26:51;;;;;;;2.20;2.00;;;;;;;12.71;44.03;95863.56;5044932;28;20476;-76
2022/04/19 12:29:18;;;;;;;1.97;1.87;;;;;;;12.99;43.74;95815.56;5031140;28;20476;-76
2022/04/19 12:31:47;;;;;;;2.23;2.03;;;;;;;13.57;42.83;95871.88;5030839;28;20469;-75